Time;durP1;ratioP1;P1;durP2;ratioP2;P2;SDS_P1;SDS_P2;PMS_P1;PMS_P2;Temp;Humidity;BMP_temperature;BMP_pressure;BME280_temperature;BME280_humidity;BME280_pressure;Samples;Min_cycle;Max_cycle;Signal;HPM_P1;HPM_P2
2023/07/17 00:03:39;;;;;;;2.90;2.70;;;24.30;38.00;;;;;;10423174;28;20332;-76
2023/07/17 00:08:44;;;;;;;2.70;2.50;;;24.20;38.50;;;;;;10425550;28;20290;-76
2023/07/17 00:13:47;;;;;;;2.57;2.37;;;24.10;39.30;;;;;;10420492;28;20234;-76
2023/07/17 00:18:50;;;;;;;2.80;2.50;;;24.10;38.80;;;;;;10421379;28;20236;-84
2023/07/17 00:23:57;;;;;;;2.67;2.47;;;24.00;39.20;;;;;;10444676;28;20229;-81
2023/07/17 00:29:23;;;;;;;3.07;2.87;;;24.00;40.00;;;;;;10438851;28;20254;-81
2023/07/17 00:34:26;;;;;;;2.73;2.53;;;24.00;40.60;;;;;;10441884;28;20260;-80
2023/07/17 00:39:31;;;;;;;3.20;2.93;;;24.00;40.00;;;;;;10441607;28;20256;-81
2023/07/17 00:44:35;;;;;;;2.90;2.67;;;24.00;40.20;;;;;;10442350;28;20228;-79
2023/07/17 00:49:40;;;;;;;3.17;2.87;;;23.80;39.80;;;;;;10440163;28;20244;-80
2023/07/17 00:54:46;;;;;;;4.87;2.87;;;23.80;40.30;;;;;;10442219;28;20799;-82
2023/07/17 00:59:50;;;;;;;3.33;3.03;;;23.70;41.30;;;;;;10439036;28;20254;-80
2023/07/17 01:04:54;;;;;;;5.93;2.63;;;23.70;40.80;;;;;;10435338;28;20237;-79
2023/07/17 01:09:58;;;;;;;3.27;2.97;;;23.60;40.80;;;;;;10440807;28;20279;-80
2023/07/17 01:15:02;;;;;;;3.60;3.10;;;23.60;41.50;;;;;;10443278;28;20252;-79
2023/07/17 01:20:06;;;;;;;3.90;3.23;;;23.60;41.20;;;;;;10437386;28;20220;-80
2023/07/17 01:25:11;;;;;;;3.77;3.10;;;23.70;41.90;;;;;;10436723;28;20241;-82
2023/07/17 01:30:14;;;;;;;3.10;2.73;;;23.70;42.30;;;;;;10449567;28;20243;-79
2023/07/17 01:35:17;;;;;;;3.67;3.33;;;23.60;41.60;;;;;;10442693;28;20248;-82
2023/07/17 01:40:23;;;;;;;4.40;3.03;;;23.50;41.80;;;;;;10444813;28;20875;-81
2023/07/17 01:45:27;;;;;;;3.40;2.93;;;23.40;42.80;;;;;;10444080;28;20249;-80
2023/07/17 01:50:30;;;;;;;3.77;3.27;;;23.40;42.40;;;;;;10439641;28;20229;-80
2023/07/17 01:55:36;;;;;;;4.77;3.30;;;23.40;42.50;;;;;;10446549;28;20571;-81
2023/07/17 02:00:42;;;;;;;3.90;3.10;;;23.50;43.30;;;;;;10455075;28;20310;-81
2023/07/17 02:05:51;;;;;;;3.50;3.20;;;23.60;42.40;;;;;;10449014;28;20237;-81
2023/07/17 02:10:56;;;;;;;3.37;3.00;;;23.70;43.60;;;;;;10449877;28;20229;-81
2023/07/17 02:15:59;;;;;;;3.57;3.27;;;23.70;42.90;;;;;;10446854;28;20225;-81
2023/07/17 02:21:04;;;;;;;3.60;3.30;;;23.70;42.20;;;;;;10421393;28;20225;-81
2023/07/17 02:26:11;;;;;;;3.37;2.77;;;23.60;42.20;;;;;;10449089;28;20589;-80
2023/07/17 02:31:14;;;;;;;3.47;3.17;;;23.50;42.70;;;;;;10450916;28;20232;-82
2023/07/17 02:36:20;;;;;;;3.70;3.40;;;23.50;42.40;;;;;;10441896;28;20229;-81
2023/07/17 02:41:38;;;;;;;3.37;3.07;;;23.50;42.60;;;;;;10443969;28;20696;-81
2023/07/17 02:46:43;;;;;;;3.80;3.40;;;23.50;43.90;;;;;;10437056;28;20287;-80
2023/07/17 02:51:50;;;;;;;3.27;3.07;;;23.60;42.80;;;;;;10442306;28;20634;-81
2023/07/17 02:56:55;;;;;;;4.83;3.20;;;23.50;42.80;;;;;;10432705;28;20321;-77
2023/07/17 03:01:58;;;;;;;3.57;3.33;;;23.60;43.70;;;;;;10430068;28;20299;-77
2023/07/17 03:07:02;;;;;;;3.10;2.90;;;23.60;43.00;;;;;;10428343;28;20233;-78
2023/07/17 03:12:08;;;;;;;4.20;3.80;;;23.60;42.60;;;;;;10432436;28;20267;-78
2023/07/17 03:17:11;;;;;;;4.03;3.53;;;23.70;43.90;;;;;;10421655;28;21008;-78
2023/07/17 03:22:15;;;;;;;4.80;3.80;;;23.70;42.80;;;;;;10437317;28;20228;-78
2023/07/17 03:27:19;;;;;;;4.30;3.90;;;23.60;42.60;;;;;;10431656;28;20299;-78
2023/07/17 03:32:23;;;;;;;4.80;3.70;;;23.60;43.30;;;;;;10443631;28;20235;-78
2023/07/17 03:37:26;;;;;;;3.90;3.50;;;23.50;42.80;;;;;;10423532;28;20233;-80
2023/07/17 03:42:32;;;;;;;4.20;3.80;;;23.50;43.00;;;;;;10427146;28;20229;-79
2023/07/17 03:47:36;;;;;;;4.30;3.90;;;23.50;43.70;;;;;;10434278;28;20597;-79
2023/07/17 03:52:39;;;;;;;3.60;3.30;;;23.50;43.40;;;;;;10435862;28;20367;-80
2023/07/17 03:57:46;;;;;;;4.57;3.93;;;23.50;43.30;;;;;;10430863;28;20678;-78
2023/07/17 04:02:49;;;;;;;4.27;3.37;;;23.50;44.10;;;;;;10429834;28;20245;-78
2023/07/17 04:07:53;;;;;;;4.40;4.10;;;23.50;43.40;;;;;;10436684;28;20245;-79
2023/07/17 04:12:58;;;;;;;4.80;3.97;;;23.50;43.30;;;;;;10432637;28;20721;-79
2023/07/17 04:18:01;;;;;;;5.10;3.93;;;23.40;43.80;;;;;;10433479;28;20232;-79
2023/07/17 04:23:05;;;;;;;4.03;3.73;;;23.40;43.50;;;;;;10436507;28;20227;-79
2023/07/17 04:28:10;;;;;;;5.80;3.60;;;23.30;43.60;;;;;;10430716;28;20249;-79
2023/07/17 04:33:13;;;;;;;4.50;3.60;;;23.20;44.30;;;;;;10436125;28;20667;-79
2023/07/17 04:38:16;;;;;;;4.00;3.70;;;23.20;44.00;;;;;;10424717;28;20225;-78
2023/07/17 04:43:21;;;;;;;3.87;3.53;;;23.20;44.10;;;;;;10418158;28;20245;-78
2023/07/17 04:48:25;;;;;;;4.00;3.47;;;23.20;44.40;;;;;;10428010;28;20852;-77
2023/07/17 04:53:29;;;;;;;4.73;3.53;;;23.20;44.00;;;;;;10430929;28;20260;-77
2023/07/17 04:58:34;;;;;;;4.97;3.43;;;23.20;44.00;;;;;;10436958;28;20225;-77
2023/07/17 05:03:37;;;;;;;5.23;3.67;;;23.20;44.80;;;;;;10436214;28;20658;-78
2023/07/17 05:08:40;;;;;;;4.27;3.40;;;23.10;43.70;;;;;;10432290;28;20231;-78
2023/07/17 05:13:45;;;;;;;5.20;3.80;;;23.00;44.00;;;;;;10432555;28;20653;-75
2023/07/17 05:18:48;;;;;;;4.80;3.67;;;23.00;44.70;;;;;;10433961;28;20243;-77
2023/07/17 05:23:51;;;;;;;4.40;3.90;;;22.80;44.10;;;;;;10427612;28;20240;-77
2023/07/17 05:28:56;;;;;;;4.40;3.97;;;22.90;44.70;;;;;;10429445;28;20233;-77
2023/07/17 05:33:59;;;;;;;4.17;3.87;;;22.90;45.00;;;;;;10438048;28;20228;-76
2023/07/17 05:39:03;;;;;;;3.77;3.47;;;22.90;44.40;;;;;;10437736;28;20315;-76
2023/07/17 05:44:08;;;;;;;4.97;3.47;;;22.90;44.30;;;;;;10431967;28;20270;-76
2023/07/17 05:49:12;;;;;;;3.70;3.40;;;22.90;44.60;;;;;;10436273;28;20227;-79
2023/07/17 05:54:15;;;;;;;3.43;3.13;;;22.80;44.20;;;;;;10444007;28;20229;-77
2023/07/17 05:59:20;;;;;;;4.73;3.40;;;22.80;43.90;;;;;;10438526;28;20260;-77
2023/07/17 06:04:23;;;;;;;3.37;3.10;;;22.70;44.50;;;;;;10425789;28;20312;-77
2023/07/17 06:09:26;;;;;;;4.43;3.70;;;22.70;44.10;;;;;;10429319;28;20906;-78
2023/07/17 06:14:31;;;;;;;3.93;3.10;;;22.60;44.20;;;;;;10429409;28;20279;-77
2023/07/17 06:19:35;;;;;;;3.77;3.40;;;22.60;44.80;;;;;;10422700;28;20340;-77
2023/07/17 06:24:38;;;;;;;3.53;3.23;;;22.70;44.60;;;;;;10438734;28;20226;-77
2023/07/17 06:29:43;;;;;;;4.83;3.33;;;22.70;44.60;;;;;;10451497;28;20228;-78
2023/07/17 06:34:47;;;;;;;4.33;3.40;;;22.80;45.80;;;;;;10448043;28;20320;-79
2023/07/17 06:39:50;;;;;;;4.10;3.07;;;22.80;45.30;;;;;;10442319;28;20229;-80
2023/07/17 06:44:55;;;;;;;3.20;2.87;;;22.80;45.10;;;;;;10446260;28;20241;-78
2023/07/17 06:50:01;;;;;;;3.50;2.73;;;22.90;45.70;;;;;;10450111;28;20225;-78
2023/07/17 06:55:05;;;;;;;2.90;2.70;;;22.90;45.90;;;;;;10486347;28;20243;-78
2023/07/17 07:00:11;;;;;;;4.90;2.70;;;23.00;45.40;;;;;;10494702;28;20277;-79
2023/07/17 07:05:14;;;;;;;4.53;2.93;;;23.10;44.70;;;;;;10497194;28;20323;-79
2023/07/17 07:10:17;;;;;;;3.27;2.93;;;23.20;44.50;;;;;;10494379;28;20360;-80
2023/07/17 07:15:22;;;;;;;3.60;2.40;;;23.30;44.00;;;;;;10495046;28;20596;-80
2023/07/17 07:20:26;;;;;;;3.33;2.87;;;23.40;43.60;;;;;;10479073;28;20309;-77
2023/07/17 07:25:31;;;;;;;4.00;2.90;;;23.50;43.80;;;;;;10480264;28;20286;-77
2023/07/17 07:30:36;;;;;;;3.07;2.70;;;23.60;43.80;;;;;;10471303;28;20244;-75
2023/07/17 07:35:43;;;;;;;3.77;3.03;;;23.60;43.60;;;;;;10463615;28;20278;-75
2023/07/17 07:40:46;;;;;;;4.87;2.83;;;23.60;43.30;;;;;;10457427;28;20231;-75
2023/07/17 07:45:51;;;;;;;3.80;2.60;;;23.70;43.40;;;;;;10466041;28;21213;-76
2023/07/17 07:50:54;;;;;;;3.13;2.77;;;23.70;43.00;;;;;;10466510;28;20278;-76
2023/07/17 07:55:58;;;;;;;2.87;2.47;;;23.80;43.00;;;;;;10467044;28;20311;-76
2023/07/17 08:01:02;;;;;;;2.97;2.70;;;24.00;43.40;;;;;;10470061;28;20576;-75
2023/07/17 08:06:06;;;;;;;3.90;2.87;;;24.20;42.80;;;;;;10420585;28;20332;-77
2023/07/17 08:11:09;;;;;;;2.93;2.73;;;24.30;42.40;;;;;;10424394;28;20320;-75
2023/07/17 08:16:14;;;;;;;2.90;2.60;;;24.50;42.50;;;;;;10424016;28;20662;-75
2023/07/17 08:21:17;;;;;;;2.90;2.70;;;24.80;42.20;;;;;;10418556;28;20278;-75
2023/07/17 08:26:21;;;;;;;3.13;2.80;;;24.90;42.20;;;;;;10429552;28;20768;-76
2023/07/17 08:31:26;;;;;;;2.80;2.57;;;25.10;42.60;;;;;;10418517;28;20311;-76
2023/07/17 08:36:30;;;;;;;3.77;2.87;;;25.30;41.80;;;;;;10423845;28;20232;-76
2023/07/17 08:41:36;;;;;;;3.00;2.60;;;25.60;41.30;;;;;;10422703;28;20235;-75
2023/07/17 08:46:41;;;;;;;3.83;2.60;;;25.70;40.80;;;;;;10423931;28;20221;-80
2023/07/17 08:51:47;;;;;;;2.90;2.60;;;26.00;40.40;;;;;;10426686;28;20221;-76
2023/07/17 08:56:51;;;;;;;3.07;2.77;;;26.20;39.60;;;;;;10422827;28;20278;-75
2023/07/17 09:01:57;;;;;;;2.60;2.40;;;26.40;39.70;;;;;;10419263;28;20287;-75
2023/07/17 09:07:01;;;;;;;3.07;2.73;;;26.60;38.30;;;;;;10417387;28;20240;-76
2023/07/17 09:12:12;;;;;;;2.63;2.40;;;26.90;38.40;;;;;;10421278;28;20249;-75
2023/07/17 09:17:16;;;;;;;3.10;2.80;;;27.10;37.00;;;;;;10415767;28;20312;-75
2023/07/17 09:22:20;;;;;;;3.50;2.63;;;27.30;37.70;;;;;;10421660;28;21001;-75
2023/07/17 09:27:23;;;;;;;2.90;2.70;;;27.50;36.40;;;;;;10427509;28;20311;-76
2023/07/17 09:32:32;;;;;;;3.07;2.87;;;27.60;36.40;;;;;;10421755;28;20225;-75
2023/07/17 09:37:36;;;;;;;6.07;2.97;;;27.70;34.80;;;;;;10425847;28;20225;-75
2023/07/17 09:42:40;;;;;;;3.00;2.63;;;27.80;36.10;;;;;;10423534;28;20241;-76
2023/07/17 09:47:48;;;;;;;3.60;2.90;;;27.90;35.70;;;;;;10425920;28;20233;-75
2023/07/17 09:52:51;;;;;;;3.80;2.83;;;28.10;34.70;;;;;;10423918;28;20312;-75
2023/07/17 09:57:59;;;;;;;3.80;2.90;;;28.30;35.40;;;;;;10425278;28;20239;-74
2023/07/17 10:03:10;;;;;;;3.23;2.93;;;28.30;33.50;;;;;;10424837;28;20249;-75
2023/07/17 10:08:16;;;;;;;3.23;2.90;;;28.40;32.60;;;;;;10417312;28;20664;-74
2023/07/17 10:13:19;;;;;;;3.30;3.00;;;28.50;33.90;;;;;;10428372;28;20742;-75
2023/07/17 10:18:24;;;;;;;4.90;3.30;;;28.60;33.70;;;;;;10424794;28;20578;-75
2023/07/17 10:23:30;;;;;;;3.40;3.10;;;28.70;31.50;;;;;;10436137;28;20232;-75
2023/07/17 10:28:34;;;;;;;4.50;2.97;;;28.80;32.50;;;;;;10432493;28;20506;-75
2023/07/17 10:33:48;;;;;;;3.40;3.10;;;28.90;32.50;;;;;;10445060;28;20435;-75
2023/07/17 10:38:53;;;;;;;4.47;3.07;;;29.10;30.60;;;;;;10432231;28;20321;-76
2023/07/17 10:43:57;;;;;;;3.73;3.30;;;29.20;32.00;;;;;;10433809;28;20268;-77
2023/07/17 10:49:22;;;;;;;3.40;3.10;;;29.30;31.10;;;;;;10435595;28;20225;-77
2023/07/17 10:54:26;;;;;;;3.53;3.10;;;29.30;31.10;;;;;;10437211;28;20241;-77
2023/07/17 10:59:31;;;;;;;3.97;3.40;;;29.40;31.10;;;;;;10436408;28;20224;-77
2023/07/17 11:04:36;;;;;;;3.60;3.10;;;29.40;29.70;;;;;;10440827;28;20228;-77
2023/07/17 11:09:43;;;;;;;3.00;2.80;;;29.30;30.20;;;;;;10441995;28;20216;-78
2023/07/17 11:14:51;;;;;;;4.37;3.23;;;29.30;29.60;;;;;;10446815;28;20232;-78
2023/07/17 11:20:03;;;;;;;3.40;3.13;;;29.20;30.20;;;;;;10454836;28;20230;-78
2023/07/17 11:25:07;;;;;;;3.70;3.40;;;29.20;29.60;;;;;;10443452;28;20238;-78
2023/07/17 11:30:21;;;;;;;4.10;3.27;;;29.10;30.20;;;;;;10447100;28;20225;-78
2023/07/17 11:35:41;;;;;;;4.30;3.10;;;29.20;29.10;;;;;;10441744;28;20317;-78
2023/07/17 11:40:55;;;;;;;4.33;3.97;;;29.20;29.20;;;;;;10442258;28;20229;-79
2023/07/17 11:46:02;;;;;;;3.40;3.10;;;29.20;28.70;;;;;;10443687;28;20321;-78
2023/07/17 11:51:07;;;;;;;3.50;3.20;;;29.20;29.90;;;;;;10447427;28;20860;-78
2023/07/17 11:56:10;;;;;;;3.80;3.50;;;29.30;29.20;;;;;;10443679;28;20305;-78
2023/07/17 12:01:14;;;;;;;3.60;3.30;;;29.40;29.50;;;;;;10436644;28;20339;-76
2023/07/17 12:06:19;;;;;;;3.53;3.23;;;29.50;29.40;;;;;;10436816;28;20239;-75
2023/07/17 12:11:23;;;;;;;5.13;3.40;;;29.60;28.90;;;;;;10424508;28;20752;-77
2023/07/17 12:16:26;;;;;;;3.80;3.40;;;29.70;29.30;;;;;;10432847;28;20233;-77
2023/07/17 12:21:31;;;;;;;3.47;3.17;;;29.90;29.30;;;;;;10423514;28;20225;-77
2023/07/17 12:26:40;;;;;;;3.50;3.20;;;30.00;28.50;;;;;;10434982;28;20260;-76
2023/07/17 12:31:45;;;;;;;3.20;3.00;;;30.10;28.20;;;;;;10429803;28;20707;-77
2023/07/17 12:36:50;;;;;;;3.40;3.13;;;30.10;27.90;;;;;;10435998;28;20241;-76
2023/07/17 12:41:54;;;;;;;3.57;3.30;;;30.00;27.90;;;;;;10432059;28;20229;-75
2023/07/17 12:46:58;;;;;;;3.53;3.10;;;30.00;27.50;;;;;;10429710;28;20326;-76
2023/07/17 12:52:03;;;;;;;3.53;2.93;;;30.00;27.30;;;;;;10436565;28;20229;-77
2023/07/17 12:57:07;;;;;;;3.30;3.00;;;29.90;27.20;;;;;;10426009;28;20265;-76
2023/07/17 13:02:18;;;;;;;6.67;3.47;;;29.90;27.50;;;;;;10424446;28;20256;-74
2023/07/17 13:07:23;;;;;;;3.57;3.27;;;29.90;27.70;;;;;;10425739;28;20316;-77
2023/07/17 13:12:27;;;;;;;3.43;3.13;;;30.00;27.20;;;;;;10430603;28;20256;-75
2023/07/17 13:17:50;;;;;;;3.60;3.27;;;30.20;27.40;;;;;;10419348;28;20228;-75
2023/07/17 13:22:55;;;;;;;3.10;2.80;;;30.30;27.00;;;;;;10427419;28;20331;-71
2023/07/17 13:28:00;;;;;;;3.30;3.10;;;30.40;27.10;;;;;;10464801;28;20302;-75
2023/07/17 13:33:04;;;;;;;3.10;2.90;;;30.50;27.20;;;;;;10453534;28;20244;-72
2023/07/17 13:38:08;;;;;;;3.33;3.00;;;30.50;26.80;;;;;;10448366;28;20283;-72
2023/07/17 13:43:12;;;;;;;3.10;2.80;;;30.60;26.00;;;;;;10448753;28;20331;-72
2023/07/17 13:48:18;;;;;;;3.67;3.27;;;30.60;26.60;;;;;;10452288;28;20237;-72
2023/07/17 13:53:22;;;;;;;3.37;3.07;;;30.60;26.50;;;;;;10452659;28;20237;-72
2023/07/17 13:58:25;;;;;;;3.33;3.03;;;30.70;25.80;;;;;;10451801;28;20296;-73
2023/07/17 14:03:29;;;;;;;3.70;3.40;;;30.80;26.00;;;;;;10492699;28;20232;-73
2023/07/17 14:08:34;;;;;;;5.43;3.63;;;30.90;25.60;;;;;;10493184;28;20311;-72
2023/07/17 14:13:37;;;;;;;3.33;3.03;;;30.90;24.90;;;;;;10474168;28;20275;-73
2023/07/17 14:18:40;;;;;;;3.30;3.00;;;30.90;25.50;;;;;;10492895;28;20224;-72
2023/07/17 14:23:45;;;;;;;3.20;3.00;;;30.90;25.70;;;;;;10492091;28;20315;-72
2023/07/17 14:28:48;;;;;;;3.50;3.17;;;30.90;25.60;;;;;;10490164;28;20229;-72
2023/07/17 14:33:51;;;;;;;3.20;2.93;;;30.90;25.60;;;;;;10490835;28;20252;-72
2023/07/17 14:38:56;;;;;;;3.30;3.00;;;30.90;25.90;;;;;;10492330;28;20231;-72
2023/07/17 14:43:59;;;;;;;3.50;3.20;;;31.00;25.30;;;;;;10491849;28;20260;-72
2023/07/17 14:49:03;;;;;;;3.50;3.17;;;31.00;25.10;;;;;;10464095;28;20236;-74
2023/07/17 14:54:08;;;;;;;3.10;2.90;;;31.10;25.10;;;;;;10496420;28;20236;-74
2023/07/17 14:59:11;;;;;;;3.40;3.10;;;31.10;24.90;;;;;;10477731;28;20220;-74
2023/07/17 15:04:14;;;;;;;3.27;3.00;;;31.00;24.90;;;;;;10478523;28;20278;-73
2023/07/17 15:09:19;;;;;;;3.40;3.13;;;30.90;25.10;;;;;;10475622;28;20346;-71
2023/07/17 15:14:22;;;;;;;3.60;3.30;;;30.80;24.80;;;;;;10482108;28;20281;-74
2023/07/17 15:19:29;;;;;;;4.47;3.03;;;30.80;25.20;;;;;;10479706;28;20642;-77
2023/07/17 15:24:34;;;;;;;3.77;3.47;;;30.80;25.00;;;;;;10490138;28;20720;-76
2023/07/17 15:29:37;;;;;;;3.27;3.07;;;30.80;24.70;;;;;;10468064;28;20230;-74
2023/07/17 15:34:40;;;;;;;3.07;2.87;;;30.80;24.80;;;;;;10488806;28;20232;-74
2023/07/17 15:39:45;;;;;;;3.70;3.40;;;30.80;24.70;;;;;;10496506;28;20674;-73
2023/07/17 15:44:48;;;;;;;3.40;3.20;;;30.80;24.30;;;;;;10494553;28;20236;-74
2023/07/17 15:49:52;;;;;;;3.70;3.40;;;30.70;25.00;;;;;;10477854;28;20236;-74
2023/07/17 15:54:56;;;;;;;5.27;3.50;;;30.70;24.80;;;;;;10483907;28;20782;-74
2023/07/17 15:59:59;;;;;;;4.63;3.47;;;30.70;24.20;;;;;;10485331;28;20239;-73
2023/07/17 16:05:03;;;;;;;3.70;3.40;;;30.70;24.40;;;;;;10490228;28;20235;-73
2023/07/17 16:10:08;;;;;;;3.80;3.50;;;30.70;24.40;;;;;;10481726;28;20338;-74
2023/07/17 16:15:12;;;;;;;3.13;2.93;;;30.70;24.20;;;;;;10487570;28;20227;-74
2023/07/17 16:20:15;;;;;;;3.37;3.07;;;30.70;24.50;;;;;;10480548;28;20669;-74
2023/07/17 16:25:20;;;;;;;4.37;3.23;;;30.70;24.40;;;;;;10485505;28;20297;-73
2023/07/17 16:30:23;;;;;;;4.10;3.40;;;30.70;24.30;;;;;;10481102;28;20771;-73
2023/07/17 16:35:26;;;;;;;3.40;3.10;;;30.70;24.20;;;;;;10489254;28;20260;-73
2023/07/17 16:40:31;;;;;;;3.93;3.33;;;30.70;24.30;;;;;;10477367;28;20227;-74
2023/07/17 16:45:34;;;;;;;3.43;3.20;;;30.60;24.00;;;;;;10487178;28;20224;-73
2023/07/17 16:50:39;;;;;;;3.53;3.23;;;30.60;24.00;;;;;;10493896;28;20240;-74
2023/07/17 16:55:43;;;;;;;3.47;3.17;;;30.60;24.10;;;;;;10486791;28;20327;-74
2023/07/17 17:00:46;;;;;;;3.50;3.20;;;30.70;23.80;;;;;;10485374;28;20246;-74
2023/07/17 17:05:50;;;;;;;4.30;3.20;;;30.70;24.00;;;;;;10485967;28;20243;-74
2023/07/17 17:10:55;;;;;;;4.47;3.30;;;30.70;24.20;;;;;;10484883;28;20331;-74
2023/07/17 17:15:59;;;;;;;5.57;3.47;;;30.70;23.90;;;;;;10483400;28;20228;-74
2023/07/17 17:21:02;;;;;;;3.83;3.50;;;30.70;24.20;;;;;;10474430;28;20227;-74
2023/07/17 17:26:07;;;;;;;3.47;3.17;;;30.90;24.00;;;;;;10475610;28;20707;-74
2023/07/17 17:31:10;;;;;;;3.83;3.53;;;30.90;23.20;;;;;;10455262;28;20236;-74
2023/07/17 17:36:13;;;;;;;3.67;3.37;;;30.80;23.10;;;;;;10459487;28;20228;-75
2023/07/17 17:41:18;;;;;;;3.73;3.43;;;30.70;23.20;;;;;;10460288;28;20601;-73
2023/07/17 17:46:22;;;;;;;4.53;3.80;;;30.70;23.10;;;;;;10455478;28;20692;-75
2023/07/17 17:51:25;;;;;;;4.47;3.30;;;30.60;23.20;;;;;;10456679;28;20340;-74
2023/07/17 17:56:30;;;;;;;3.83;3.43;;;30.50;23.10;;;;;;10470062;28;20232;-74
2023/07/17 18:01:33;;;;;;;3.87;3.30;;;30.40;23.10;;;;;;10470636;28;20722;-74
2023/07/17 18:06:36;;;;;;;4.63;3.20;;;30.30;23.50;;;;;;10475265;28;20228;-75
2023/07/17 18:11:41;;;;;;;3.77;3.43;;;30.30;23.70;;;;;;10481960;28;20228;-75
2023/07/17 18:16:44;;;;;;;5.17;3.70;;;30.30;23.30;;;;;;10476288;28;20232;-74
2023/07/17 18:21:49;;;;;;;3.60;3.30;;;30.20;23.70;;;;;;10487351;28;20276;-75
2023/07/17 18:26:54;;;;;;;3.87;3.50;;;30.20;23.70;;;;;;10477059;28;20237;-76
2023/07/17 18:31:57;;;;;;;4.00;3.70;;;30.10;23.50;;;;;;10479624;28;20236;-76
2023/07/17 18:37:01;;;;;;;3.97;3.57;;;30.00;23.70;;;;;;10512917;28;20236;-76
2023/07/17 18:42:07;;;;;;;4.20;3.50;;;29.90;23.70;;;;;;10435697;28;20654;-75
2023/07/17 18:47:10;;;;;;;3.87;3.57;;;29.80;23.60;;;;;;10434034;28;20256;-77
2023/07/17 18:52:14;;;;;;;3.80;3.37;;;29.80;23.70;;;;;;10430286;28;20224;-75
2023/07/17 18:57:18;;;;;;;5.20;3.70;;;29.70;23.60;;;;;;10436560;28;20228;-75
2023/07/17 19:02:23;;;;;;;3.70;3.40;;;29.60;23.30;;;;;;10434969;28;20263;-77
2023/07/17 19:07:27;;;;;;;5.23;3.47;;;29.50;23.60;;;;;;10426985;28;20781;-75
2023/07/17 19:12:32;;;;;;;3.93;3.53;;;29.50;23.80;;;;;;10432194;28;20237;-77
2023/07/17 19:17:36;;;;;;;4.60;3.67;;;29.40;24.00;;;;;;10432471;28;20229;-76
2023/07/17 19:22:40;;;;;;;4.00;3.60;;;29.30;24.20;;;;;;10432805;28;20312;-75
2023/07/17 19:27:45;;;;;;;4.40;4.00;;;29.20;24.20;;;;;;10433670;28;20229;-76
2023/07/17 19:32:48;;;;;;;4.73;3.70;;;29.10;24.10;;;;;;10426735;28;20232;-75
2023/07/17 19:37:51;;;;;;;3.80;3.40;;;29.00;24.40;;;;;;10434293;28;20279;-76
2023/07/17 19:42:56;;;;;;;3.87;3.57;;;28.90;24.50;;;;;;10427085;28;20243;-75
2023/07/17 19:47:59;;;;;;;4.20;3.80;;;28.80;23.90;;;;;;10437878;28;20599;-76
2023/07/17 19:53:03;;;;;;;4.43;4.03;;;28.70;24.10;;;;;;10432485;28;20225;-75
2023/07/17 19:58:07;;;;;;;3.83;3.53;;;28.70;24.10;;;;;;10447695;28;20228;-75
2023/07/17 20:03:11;;;;;;;4.57;4.00;;;28.60;24.00;;;;;;10437516;28;20802;-76
2023/07/17 20:08:14;;;;;;;4.53;3.70;;;28.50;24.00;;;;;;10428962;28;20220;-75
2023/07/17 20:13:21;;;;;;;4.17;3.80;;;28.40;24.10;;;;;;10430907;28;20713;-75
2023/07/17 20:18:24;;;;;;;4.20;3.80;;;28.30;24.00;;;;;;10428199;28;20241;-76
2023/07/17 20:23:28;;;;;;;4.40;4.00;;;28.20;24.20;;;;;;10422507;28;20232;-75
2023/07/17 20:28:33;;;;;;;4.07;3.67;;;28.10;24.30;;;;;;10425585;28;20228;-75
2023/07/17 20:33:36;;;;;;;4.20;3.80;;;28.10;24.20;;;;;;10429328;28;20316;-76
2023/07/17 20:38:40;;;;;;;4.60;4.20;;;28.00;24.20;;;;;;10418208;28;20727;-76
2023/07/17 20:43:44;;;;;;;6.30;4.30;;;27.90;24.10;;;;;;10422974;28;20237;-75
2023/07/17 20:48:47;;;;;;;4.83;3.93;;;27.80;23.90;;;;;;10414242;28;20229;-76
2023/07/17 20:53:51;;;;;;;4.70;4.20;;;27.70;24.10;;;;;;10419661;28;20302;-76
2023/07/17 20:58:58;;;;;;;4.50;3.83;;;27.60;24.10;;;;;;10414827;28;20255;-75
2023/07/17 21:04:04;;;;;;;3.70;3.40;;;27.50;24.10;;;;;;10421052;28;20236;-78
2023/07/17 21:09:08;;;;;;;4.27;3.87;;;27.50;24.20;;;;;;10421427;28;20226;-76
2023/07/17 21:14:13;;;;;;;5.60;3.93;;;27.50;24.30;;;;;;10425832;28;20220;-75
2023/07/17 21:19:16;;;;;;;4.20;3.90;;;27.40;24.30;;;;;;10425319;28;20216;-76
2023/07/17 21:24:20;;;;;;;4.60;4.20;;;27.40;24.40;;;;;;10425960;28;20271;-75
2023/07/17 21:29:25;;;;;;;5.50;4.07;;;27.40;24.30;;;;;;10418836;28;20266;-74
2023/07/17 21:34:45;;;;;;;4.10;3.70;;;27.30;23.90;;;;;;10422700;28;20796;-75
2023/07/17 21:39:48;;;;;;;5.73;3.93;;;27.20;24.10;;;;;;10421149;28;20229;-77
2023/07/17 21:44:53;;;;;;;4.10;3.70;;;27.10;24.30;;;;;;10432244;28;20315;-75
2023/07/17 21:49:56;;;;;;;3.93;3.60;;;27.00;24.00;;;;;;10422375;28;20705;-75
2023/07/17 21:54:59;;;;;;;3.83;3.53;;;26.90;24.10;;;;;;10432659;28;20233;-75
2023/07/17 22:00:05;;;;;;;4.30;3.90;;;26.80;24.20;;;;;;10425570;28;20244;-74
2023/07/17 22:05:09;;;;;;;5.17;3.37;;;26.70;24.20;;;;;;10425712;28;20256;-75
2023/07/17 22:10:12;;;;;;;4.10;3.60;;;26.70;24.30;;;;;;10427221;28;20228;-75
2023/07/17 22:15:17;;;;;;;4.83;3.60;;;26.60;24.40;;;;;;10429292;28;20320;-75
2023/07/17 22:20:20;;;;;;;4.00;3.60;;;26.60;24.30;;;;;;10427950;28;20217;-76
2023/07/17 22:25:23;;;;;;;4.07;3.67;;;26.50;24.50;;;;;;10431004;28;20243;-76
2023/07/17 22:30:28;;;;;;;6.77;4.03;;;26.40;24.50;;;;;;10424956;28;20239;-76
2023/07/17 22:35:32;;;;;;;4.07;3.60;;;26.40;24.60;;;;;;10432235;28;20241;-76
2023/07/17 22:40:35;;;;;;;4.07;3.60;;;26.30;24.80;;;;;;10427543;28;21069;-76
2023/07/17 22:45:41;;;;;;;3.90;3.50;;;26.20;24.90;;;;;;10433455;28;20225;-76
2023/07/17 22:50:45;;;;;;;4.37;3.70;;;26.20;25.40;;;;;;10430326;28;20241;-75
2023/07/17 22:55:49;;;;;;;3.83;3.53;;;26.10;24.80;;;;;;10427370;28;20232;-76
2023/07/17 23:00:53;;;;;;;3.80;3.50;;;26.10;24.80;;;;;;10422763;28;20229;-75
2023/07/17 23:05:57;;;;;;;4.00;3.60;;;26.00;24.90;;;;;;10429479;28;20234;-76
2023/07/17 23:11:01;;;;;;;3.90;3.50;;;26.00;25.20;;;;;;10420036;28;20843;-76
2023/07/17 23:16:08;;;;;;;6.10;3.57;;;25.90;25.10;;;;;;10429948;28;20283;-77
2023/07/17 23:21:11;;;;;;;4.07;3.70;;;25.80;25.20;;;;;;10423015;28;20863;-76
2023/07/17 23:26:14;;;;;;;3.90;3.50;;;25.70;25.30;;;;;;10416047;28;20240;-76
2023/07/17 23:31:19;;;;;;;4.07;3.67;;;25.60;25.80;;;;;;10410740;28;20228;-75
2023/07/17 23:36:23;;;;;;;4.87;3.30;;;25.50;26.30;;;;;;10429192;28;20229;-76
2023/07/17 23:41:26;;;;;;;4.53;3.70;;;25.30;26.20;;;;;;10438544;28;20221;-75
2023/07/17 23:46:31;;;;;;;4.17;3.70;;;25.10;26.50;;;;;;10422027;28;20275;-76
2023/07/17 23:51:34;;;;;;;3.93;3.60;;;24.90;26.90;;;;;;10432988;28;20229;-75
2023/07/17 23:56:38;;;;;;;3.73;3.43;;;24.70;26.90;;;;;;10427501;28;20228;-74
